Terminal Aerodrome Forecast
Issued by NWS Blacksburg, VA

Current Version | Previous Version | Graphics & Text | Print | Product List | Glossary On
Versions: 1 2 3 4 5 6 7 8 9 10 11 12 13 14 15 16 17
000
FTUS41 KRNK 100204 AAA
TAFBLF
TAF AMD
KBLF 100204Z 1002/1024 29012G22KT 5SM -SHSN OVC020
     FM100600 29014G24KT 3SM -SHSN OVC018
      TEMPO 1006/1008 3/4SM -SHSN BLSN OVC012
     FM101500 28012KT P6SM BKN040
     FM101800 27012KT P6SM SCT045=

USA.gov is the U.S. government's official web portal to all federal, state and local government web resources and services.